Terminal Aerodrome Forecast
Issued by NWS

Home | Current Version | Previous Version | Text Only | Print | Product List | Glossary On
Versions: 1 2 3 4 5 6 7 8 9 10 11 12 13 14 15 16 17 18 19 20
232
FTUS46 KLOX 280541
TAFBUR
TAF
KBUR 280541Z 2806/2906 15007KT P6SM SCT250
     FM281000 VRB03KT 6SM HZ OVC008
     FM281700 16006KT 6SM HZ SCT012 SCT150
     FM282000 18010KT P6SM SKC
     FM290400 14007KT 6SM HZ SKC=

USA.gov is the U.S. government's official web portal to all federal, state and local government web resources and services.